Time;durP1;ratioP1;P1;durP2;ratioP2;P2;SDS_P1;SDS_P2;PMS_P1;PMS_P2;Temp;Humidity;BMP_temperature;BMP_pressure;BME280_temperature;BME280_humidity;BME280_pressure;Samples;Min_cycle;Max_cycle;Signal;HPM_P1;HPM_P2
2022/06/08 00:00:21;;;;;;;19.85;17.90;;;;;;;17.87;72.30;100829.08;1760738;81;21820;-92
2022/06/08 00:03:02;;;;;;;19.32;17.42;;;;;;;17.88;72.20;100827.30;1760366;81;21523;-91
2022/06/08 00:05:32;;;;;;;19.80;17.73;;;;;;;17.89;72.18;100827.75;1755847;81;21575;-91
2022/06/08 00:07:59;;;;;;;20.37;18.25;;;;;;;17.92;72.13;100828.17;1731326;81;21061;-89
2022/06/08 00:10:25;;;;;;;22.62;19.60;;;;;;;17.93;72.15;100829.50;1760580;81;21614;-91
2022/06/08 00:13:05;;;;;;;20.43;18.30;;;;;;;17.94;72.16;100829.05;1760390;81;21128;-92
2022/06/08 00:15:34;;;;;;;20.82;18.70;;;;;;;17.94;72.13;100829.92;1759603;81;21568;-88
2022/06/08 00:18:02;;;;;;;20.62;18.57;;;;;;;17.92;72.17;100829.05;1782621;80;21037;-91
2022/06/08 00:20:30;;;;;;;19.92;17.92;;;;;;;17.90;72.14;100832.16;1759973;81;21029;-89
2022/06/08 00:23:09;;;;;;;19.52;17.77;;;;;;;17.91;72.18;100831.74;1760257;81;21052;-91
2022/06/08 00:29:35;;;;;;;18.37;16.45;;;;;;;17.87;72.18;100829.53;1760145;81;21022;-90
2022/06/08 00:32:06;;;;;;;17.60;15.83;;;;;;;17.85;72.21;100825.54;1732341;81;20989;-91
2022/06/08 00:34:33;;;;;;;17.98;16.37;;;;;;;17.77;72.26;100813.10;1756951;80;21601;-89
2022/06/08 00:37:00;;;;;;;17.77;15.95;;;;;;;17.84;72.16;100825.08;1729364;82;21058;-90
2022/06/08 00:39:26;;;;;;;16.37;14.85;;;;;;;17.82;72.13;100820.18;1729302;81;21795;-89
2022/06/08 00:42:24;;;;;;;16.37;14.68;;;;;;;17.86;72.15;100825.08;1759796;81;21056;-91
2022/06/08 00:45:40;;;;;;;16.48;14.87;;;;;;;17.85;72.01;100829.53;1757645;80;21025;-91
2022/06/08 00:48:19;;;;;;;17.75;14.53;;;;;;;17.84;71.97;100822.84;1757774;81;21044;-89
2022/06/08 00:50:51;;;;;;;15.72;14.20;;;;;;;17.82;71.92;100825.50;1757926;81;22100;-89
2022/06/08 00:53:22;;;;;;;15.08;13.60;;;;;;;17.81;71.88;100826.84;1759598;80;22611;-90
2022/06/08 00:55:48;;;;;;;16.10;13.38;;;;;;;17.80;71.90;100829.95;1768295;80;21040;-89
2022/06/08 00:58:41;;;;;;;14.85;13.45;;;;;;;17.78;71.76;100826.41;1762793;80;21096;-92
2022/06/08 01:01:15;;;;;;;14.60;13.20;;;;;;;17.76;71.77;100822.00;1754898;81;21056;-90
2022/06/08 01:04:11;;;;;;;15.98;14.40;;;;;;;17.74;71.74;100818.45;1728362;81;21039;-90
2022/06/08 01:07:10;;;;;;;16.50;14.90;;;;;;;17.73;71.79;100818.88;1724856;83;21766;-91
2022/06/08 01:10:21;;;;;;;18.62;14.53;;;;;;;17.71;71.86;100817.13;1725292;83;21704;-91
2022/06/08 01:12:50;;;;;;;17.32;15.63;;;;;;;17.69;71.99;100814.45;1724663;82;21066;-89
2022/06/08 01:15:21;;;;;;;19.30;15.20;;;;;;;17.66;72.08;100814.45;1769553;80;21088;-91
2022/06/08 01:17:48;;;;;;;17.75;14.70;;;;;;;17.64;72.21;100810.50;1776938;79;21131;-88
2022/06/08 01:20:19;;;;;;;18.05;16.25;;;;;;;17.65;72.38;100816.70;1730254;80;21939;-89
2022/06/08 01:22:47;;;;;;;18.02;16.32;;;;;;;17.63;72.48;100808.71;1718722;80;21155;-89
2022/06/08 01:25:16;;;;;;;17.48;15.75;;;;;;;17.62;72.64;100806.92;1746221;80;21111;-91
2022/06/08 01:28:07;;;;;;;19.65;17.55;;;;;;;17.62;72.69;100807.38;1745683;82;21235;-89
2022/06/08 01:30:39;;;;;;;19.07;17.17;;;;;;;17.60;72.71;100803.38;1745847;81;21037;-90
2022/06/08 01:33:51;;;;;;;19.25;17.35;;;;;;;17.58;72.82;100798.52;1746237;81;21765;-90
2022/06/08 01:37:12;;;;;;;18.55;16.75;;;;;;;17.58;72.90;100798.52;1746524;81;21535;-89
2022/06/08 01:40:18;;;;;;;21.50;19.23;;;;;;;17.58;72.98;100793.19;1746757;81;21017;-90
2022/06/08 01:43:40;;;;;;;19.50;17.60;;;;;;;17.58;73.04;100798.97;1656647;86;21409;-90
2022/06/08 01:46:57;;;;;;;19.35;17.62;;;;;;;17.58;73.14;100798.97;1654590;86;21089;-89
2022/06/08 01:50:08;;;;;;;20.77;18.82;;;;;;;17.56;73.21;100797.64;1634954;87;21786;-90
2022/06/08 01:52:46;;;;;;;20.88;18.87;;;;;;;17.49;73.34;100781.23;1633981;86;21137;-90
2022/06/08 01:55:30;;;;;;;20.88;18.90;;;;;;;17.57;73.32;100796.77;1633941;87;21124;-90
2022/06/08 01:58:23;;;;;;;20.70;18.60;;;;;;;17.55;73.39;100793.64;1633955;87;21094;-90
2022/06/08 02:01:31;;;;;;;21.97;19.45;;;;;;;17.54;73.40;100795.88;1652987;86;21153;-90
2022/06/08 02:04:27;;;;;;;20.27;18.30;;;;;;;17.53;73.49;100790.11;1667085;84;21823;-90
2022/06/08 02:07:12;;;;;;;21.15;19.05;;;;;;;17.49;73.55;100794.13;1685968;84;21106;-90
2022/06/08 02:09:46;;;;;;;20.08;17.95;;;;;;;17.48;73.65;100795.00;1654374;86;21105;-90
2022/06/08 02:12:13;;;;;;;20.90;18.90;;;;;;;17.47;73.72;100793.67;1654059;86;21142;-89
2022/06/08 02:15:13;;;;;;;20.62;18.57;;;;;;;17.44;73.74;100790.58;1611568;87;21094;-90
2022/06/08 02:17:44;;;;;;;19.92;17.87;;;;;;;17.43;73.85;100790.58;1633186;86;21774;-89
2022/06/08 02:20:20;;;;;;;21.87;18.95;;;;;;;17.45;74.01;100786.14;1711474;81;21100;-89
2022/06/08 02:23:13;;;;;;;20.08;18.07;;;;;;;17.45;74.04;100787.47;1757064;81;21060;-89
2022/06/08 02:25:47;;;;;;;21.17;19.12;;;;;;;17.46;74.12;100786.14;1756807;81;21542;-89
2022/06/08 02:28:34;;;;;;;20.00;17.85;;;;;;;17.47;74.15;100781.27;1756613;81;21089;-90
2022/06/08 02:31:12;;;;;;;20.00;17.95;;;;;;;17.48;74.24;100778.16;1757159;81;21863;-90
2022/06/08 02:36:43;;;;;;;20.17;18.02;;;;;;;17.49;74.32;100782.15;1728687;81;21675;-90
2022/06/08 02:39:29;;;;;;;21.20;19.07;;;;;;;17.49;74.36;100782.57;1727363;83;21113;-90
2022/06/08 02:42:00;;;;;;;19.82;17.92;;;;;;;17.51;74.39;100777.25;1730934;80;22147;-89
2022/06/08 02:44:33;;;;;;;20.55;18.42;;;;;;;17.53;74.55;100784.36;1788286;80;22589;-89
2022/06/08 02:47:31;;;;;;;20.52;18.62;;;;;;;17.54;74.59;100787.45;1788426;80;21025;-91
2022/06/08 02:50:12;;;;;;;20.82;18.62;;;;;;;17.55;74.65;100783.91;1787843;80;21069;-91
2022/06/08 02:52:43;;;;;;;20.12;18.23;;;;;;;17.57;74.73;100779.87;1787017;79;21041;-92
2022/06/08 02:55:37;;;;;;;19.98;18.15;;;;;;;17.59;74.81;100780.80;1787567;80;21084;-91
2022/06/08 02:58:44;;;;;;;20.20;18.20;;;;;;;17.61;74.79;100776.34;1770722;80;21754;-91
2022/06/08 03:01:38;;;;;;;19.73;17.87;;;;;;;17.62;74.77;100775.44;1740780;81;21037;-90
2022/06/08 03:04:19;;;;;;;20.57;18.67;;;;;;;17.62;74.81;100769.66;1727487;83;21020;-88
2022/06/08 03:07:24;;;;;;;20.97;19.00;;;;;;;17.65;74.85;100768.33;1727186;80;21122;-91
2022/06/08 03:09:51;;;;;;;21.45;19.25;;;;;;;17.68;74.86;100772.74;1726912;83;21093;-89
2022/06/08 03:12:33;;;;;;;20.75;18.67;;;;;;;17.71;74.90;100772.75;1698544;83;21754;-89
2022/06/08 03:15:02;;;;;;;20.57;18.37;;;;;;;17.74;74.85;100771.41;1725293;82;21097;-90
2022/06/08 03:18:25;;;;;;;22.13;19.73;;;;;;;17.76;74.89;100770.08;1726867;83;21033;-90
2022/06/08 03:21:41;;;;;;;21.25;19.25;;;;;;;17.78;74.91;100767.84;1681676;85;21076;-92
2022/06/08 03:27:53;;;;;;;22.73;20.43;;;;;;;17.81;74.98;100770.50;1708958;84;21043;-91
2022/06/08 03:31:16;;;;;;;21.75;19.42;;;;;;;17.86;75.04;100766.50;1708848;84;21536;-91
2022/06/08 03:37:42;;;;;;;23.22;20.20;;;;;;;17.93;74.99;100768.25;1708256;84;21118;-90
2022/06/08 03:40:16;;;;;;;22.27;19.37;;;;;;;17.99;75.01;100770.00;1708703;83;21051;-89
2022/06/08 03:43:12;;;;;;;22.15;19.85;;;;;;;18.01;74.97;100775.73;1709103;83;21909;-90
2022/06/08 03:46:12;;;;;;;21.60;19.60;;;;;;;18.05;75.00;100768.63;1708551;84;21568;-90
2022/06/08 03:48:39;;;;;;;21.57;18.48;;;;;;;18.12;74.96;100774.36;1708476;83;21078;-91
2022/06/08 03:51:06;;;;;;;20.32;18.23;;;;;;;18.19;74.87;100771.23;1710254;83;21073;-91
2022/06/08 03:53:51;;;;;;;22.82;20.45;;;;;;;18.28;74.92;100781.80;1710124;83;21117;-88
2022/06/08 03:56:18;;;;;;;24.23;19.50;;;;;;;18.36;74.82;100779.11;1705795;82;21837;-89
2022/06/08 03:58:45;;;;;;;21.23;19.15;;;;;;;18.48;74.77;100776.80;1710594;82;21090;-90
2022/06/08 04:01:18;;;;;;;22.42;20.12;;;;;;;18.59;74.64;100781.61;1710293;83;21374;-91
2022/06/08 04:03:44;;;;;;;21.23;19.32;;;;;;;18.65;74.46;100782.42;1656398;85;21062;-92
2022/06/08 04:06:28;;;;;;;21.10;19.02;;;;;;;18.71;74.28;100781.95;1656928;86;21101;-92
2022/06/08 04:09:06;;;;;;;20.65;18.52;;;;;;;18.77;74.29;100781.47;1660523;86;21812;-93
2022/06/08 04:11:44;;;;;;;21.10;18.80;;;;;;;18.87;74.14;100778.76;1632722;85;21077;-93
2022/06/08 04:14:11;;;;;;;23.27;18.37;;;;;;;18.94;74.10;100781.78;1677961;85;21032;-89
2022/06/08 04:16:49;;;;;;;19.92;18.17;;;;;;;18.99;73.84;100774.62;1671862;85;21019;-92
2022/06/08 04:19:16;;;;;;;21.33;17.82;;;;;;;19.01;73.65;100783.08;1690877;81;21010;-91
2022/06/08 04:21:43;;;;;;;20.48;18.57;;;;;;;19.03;73.46;100777.70;1745693;81;21797;-93
2022/06/08 04:24:10;;;;;;;20.90;18.77;;;;;;;19.03;73.33;100769.27;1723944;82;21603;-91
2022/06/08 04:26:38;;;;;;;19.52;17.42;;;;;;;19.07;73.33;100774.12;1748745;80;21098;-91
2022/06/08 04:29:13;;;;;;;20.20;18.15;;;;;;;19.11;73.28;100769.65;1770018;79;21080;-90
2022/06/08 04:31:40;;;;;;;19.42;17.45;;;;;;;19.17;73.22;100776.25;1787514;79;21029;-91
2022/06/08 04:34:09;;;;;;;20.20;18.20;;;;;;;19.23;73.08;100782.84;1775912;80;21725;-93
2022/06/08 04:36:39;;;;;;;20.02;18.12;;;;;;;19.28;73.06;100781.48;1787059;80;21076;-92
2022/06/08 04:39:07;;;;;;;20.57;18.52;;;;;;;19.37;72.91;100784.02;1757875;80;21088;-90
2022/06/08 04:41:46;;;;;;;19.85;17.85;;;;;;;19.50;73.00;100784.36;1753495;80;21626;-90
2022/06/08 04:44:13;;;;;;;17.67;16.07;;;;;;;19.74;73.18;100780.52;1777561;79;21025;-95
2022/06/08 04:46:46;;;;;;;17.82;15.93;;;;;;;20.94;75.32;100780.58;1758420;80;21683;-90
2022/06/08 04:49:18;;;;;;;16.60;14.68;;;;;;;22.27;73.55;100774.84;1788249;80;21017;-90
2022/06/08 04:52:07;;;;;;;16.48;14.23;;;;;;;23.73;72.65;100768.86;1759174;80;21036;-93
2022/06/08 04:54:42;;;;;;;15.45;13.40;;;;;;;25.06;70.59;100774.53;1758000;80;21074;-93
2022/06/08 04:57:39;;;;;;;14.30;12.95;;;;;;;25.79;67.29;100775.53;1769194;80;21100;-95
2022/06/08 05:00:09;;;;;;;12.47;11.30;;;;;;;26.23;65.80;100776.98;1763794;80;21768;-90
2022/06/08 05:02:48;;;;;;;10.80;9.70;;;;;;;26.28;63.85;100776.81;1765792;80;21025;-88
2022/06/08 05:06:09;;;;;;;10.10;9.10;;;;;;;26.99;63.91;100771.20;1769059;80;21037;-95
2022/06/08 05:09:29;;;;;;;10.25;9.20;;;;;;;27.97;62.13;100767.30;1753415;80;21041;-95
2022/06/08 05:11:56;;;;;;;9.30;7.87;;;;;;;29.27;61.26;100763.53;1757218;81;21017;-87
2022/06/08 05:14:35;;;;;;;8.63;7.72;;;;;;;30.73;58.64;100759.98;1765168;79;23082;-93
2022/06/08 05:17:08;;;;;;;7.95;7.15;;;;;;;31.12;55.45;100757.69;1767968;79;21107;-87
2022/06/08 05:19:35;;;;;;;7.50;6.80;;;;;;;30.94;54.19;100750.19;1757274;79;21305;-91
2022/06/08 05:22:02;;;;;;;7.15;6.45;;;;;;;30.53;52.99;100758.43;1751777;80;21095;-87
2022/06/08 05:24:29;;;;;;;10.88;7.50;;;;;;;30.26;52.44;100758.63;1752350;80;21078;-91
2022/06/08 05:26:56;;;;;;;7.53;6.83;;;;;;;29.79;51.50;100755.81;1740080;81;22591;-87
2022/06/08 05:29:36;;;;;;;9.00;6.85;;;;;;;29.16;51.16;100762.36;1755963;81;21928;-92
2022/06/08 05:32:04;;;;;;;7.45;6.40;;;;;;;28.79;51.74;100741.20;1727990;81;21022;-89
2022/06/08 05:34:36;;;;;;;11.95;6.45;;;;;;;29.25;51.90;100749.19;1743002;81;21069;-92
2022/06/08 05:37:12;;;;;;;7.17;6.28;;;;;;;29.65;51.04;100748.38;1752038;81;21651;-90
2022/06/08 05:47:08;;;;;;;7.33;6.60;;;;;;;28.55;48.82;100752.79;1747811;82;21062;-89
2022/06/08 05:49:52;;;;;;;10.10;7.83;;;;;;;27.51;49.44;100751.36;1748449;82;21050;-91
2022/06/08 05:52:19;;;;;;;7.47;6.78;;;;;;;26.98;49.62;100750.06;1747868;82;21285;-90
2022/06/08 05:54:47;;;;;;;8.43;7.53;;;;;;;26.44;50.04;100757.69;1747399;81;21781;-90
2022/06/08 06:01:17;;;;;;;9.15;7.15;;;;;;;25.71;50.71;100749.30;1747631;82;21077;-90
2022/06/08 06:03:44;;;;;;;8.65;7.60;;;;;;;25.19;51.28;100761.05;1747492;82;21069;-90
2022/06/08 06:06:47;;;;;;;10.00;7.40;;;;;;;24.97;51.48;100757.34;1751954;81;21028;-91
2022/06/08 06:09:26;;;;;;;9.13;8.30;;;;;;;24.73;51.82;100761.28;1757340;81;21793;-91
2022/06/08 06:11:53;;;;;;;11.38;7.92;;;;;;;24.47;52.30;100755.37;1757111;81;21052;-91
2022/06/08 06:18:28;;;;;;;9.23;8.33;;;;;;;24.28;53.00;100751.06;1726778;83;21630;-91
2022/06/08 06:21:16;;;;;;;8.65;7.78;;;;;;;24.13;53.39;100753.77;1693095;83;36886;-91
2022/06/08 06:27:37;;;;;;;10.45;7.78;;;;;;;23.94;53.67;100752.59;1704843;83;21086;-91
2022/06/08 06:30:05;;;;;;;8.23;7.53;;;;;;;23.81;53.79;100757.45;1712125;81;21005;-91
2022/06/08 06:32:35;;;;;;;11.33;7.37;;;;;;;23.77;54.07;100759.78;1757662;81;21013;-90
2022/06/08 06:43:13;;;;;;;10.80;7.30;;;;;;;24.02;53.76;100756.78;1716732;83;21027;-91
2022/06/08 06:45:56;;;;;;;7.80;6.95;;;;;;;24.13;53.90;100759.14;1735161;81;21316;-91
2022/06/08 06:48:46;;;;;;;8.05;7.35;;;;;;;24.26;54.02;100762.34;1730463;81;21046;-90
2022/06/08 06:54:50;;;;;;;9.80;8.85;;;;;;;24.48;53.89;100757.62;1756094;81;21763;-89
2022/06/08 06:57:16;;;;;;;9.60;8.70;;;;;;;24.45;53.82;100755.90;1757099;81;21080;-90
2022/06/08 07:03:50;;;;;;;9.50;8.50;;;;;;;24.56;53.96;100748.86;1757140;81;21037;-92
2022/06/08 07:06:17;;;;;;;10.65;8.60;;;;;;;24.61;53.86;100746.91;1757525;81;21069;-91
2022/06/08 07:09:46;;;;;;;10.00;8.88;;;;;;;24.59;53.69;100746.08;1757317;81;21732;-92
2022/06/08 07:12:23;;;;;;;13.93;8.93;;;;;;;24.56;53.78;100740.31;1757967;81;21585;-91
2022/06/08 07:14:56;;;;;;;9.70;8.73;;;;;;;24.63;53.87;100735.14;1757871;80;21030;-90
2022/06/08 07:17:23;;;;;;;10.05;8.35;;;;;;;24.69;53.95;100739.91;1735783;81;21046;-90
2022/06/08 07:20:52;;;;;;;10.15;8.53;;;;;;;24.82;54.08;100734.52;1727542;81;21062;-91
2022/06/08 07:27:47;;;;;;;14.30;8.90;;;;;;;24.90;53.81;100737.81;1722029;83;21022;-91
2022/06/08 07:34:32;;;;;;;8.48;7.72;;;;;;;25.14;54.03;100740.59;1697256;84;21327;-91
2022/06/08 07:38:11;;;;;;;12.25;8.23;;;;;;;25.25;53.75;100746.51;1697832;84;21084;-91
2022/06/08 07:44:47;;;;;;;11.73;8.60;;;;;;;25.40;53.72;100745.08;1698087;83;21077;-91
2022/06/08 07:47:16;;;;;;;9.88;7.65;;;;;;;25.37;53.39;100744.70;1754096;81;21084;-92
2022/06/08 07:49:49;;;;;;;8.50;7.60;;;;;;;25.28;53.38;100745.03;1743656;80;21591;-91
2022/06/08 07:52:17;;;;;;;7.92;7.12;;;;;;;25.19;53.61;100730.55;1716561;82;21048;-92
2022/06/08 07:54:44;;;;;;;8.80;8.08;;;;;;;25.32;53.55;100748.05;1716091;82;22604;-90
2022/06/08 08:05:50;;;;;;;8.65;7.30;;;;;;;25.26;53.56;100738.82;1651451;86;21104;-91
2022/06/08 08:08:17;;;;;;;10.65;8.30;;;;;;;25.50;53.74;100734.34;1651138;86;21100;-91
2022/06/08 08:10:44;;;;;;;8.20;7.50;;;;;;;25.72;53.57;100736.25;1649817;85;22603;-91
2022/06/08 08:13:11;;;;;;;9.40;8.40;;;;;;;25.88;53.47;100738.73;1651147;85;21058;-91
2022/06/08 08:16:11;;;;;;;9.15;8.05;;;;;;;26.02;53.15;100736.91;1651589;86;21076;-90
2022/06/08 08:18:41;;;;;;;10.35;9.25;;;;;;;26.18;52.98;100734.02;1651363;85;21206;-91
2022/06/08 08:21:16;;;;;;;9.45;7.50;;;;;;;26.32;52.77;100741.53;1650649;86;21089;-91
2022/06/08 08:23:54;;;;;;;12.55;8.03;;;;;;;26.30;52.32;100739.38;1650848;85;22522;-91
2022/06/08 08:27:17;;;;;;;8.13;7.25;;;;;;;26.26;52.24;100743.14;1650739;86;21147;-90
2022/06/08 08:33:54;;;;;;;12.18;7.87;;;;;;;26.35;52.49;100741.87;1651288;86;21076;-90
2022/06/08 08:36:21;;;;;;;9.53;6.95;;;;;;;26.47;51.93;100746.78;1659303;83;21144;-91
2022/06/08 08:38:48;;;;;;;9.23;7.00;;;;;;;26.53;51.87;100737.55;1716989;83;22393;-91
2022/06/08 08:45:29;;;;;;;13.05;6.62;;;;;;;26.62;51.84;100739.03;1716849;82;21068;-91
2022/06/08 08:48:18;;;;;;;8.45;7.40;;;;;;;26.70;51.83;100739.57;1716928;82;21104;-90
2022/06/08 08:51:32;;;;;;;9.45;6.87;;;;;;;26.75;51.50;100741.61;1728346;82;21088;-92
2022/06/08 08:54:27;;;;;;;10.70;6.58;;;;;;;26.76;51.54;100733.42;1731660;81;21752;-92
2022/06/08 08:57:30;;;;;;;7.72;6.28;;;;;;;26.86;51.30;100737.98;1709538;83;21074;-90
2022/06/08 09:00:36;;;;;;;9.40;8.00;;;;;;;26.89;51.39;100731.55;1730596;82;21085;-91
2022/06/08 09:03:46;;;;;;;8.18;7.37;;;;;;;26.83;50.94;100734.05;1693271;83;21535;-90
2022/06/08 09:06:54;;;;;;;7.95;6.67;;;;;;;26.70;50.82;100738.22;1691122;84;21556;-91
2022/06/08 09:12:58;;;;;;;7.65;6.00;;;;;;;26.25;51.20;100736.45;1695711;83;21642;-91
2022/06/08 09:19:52;;;;;;;7.40;5.35;;;;;;;26.30;51.36;100739.86;1721045;83;21145;-89
2022/06/08 09:22:33;;;;;;;5.83;4.70;;;;;;;26.41;50.51;100730.84;1714122;82;21114;-91
2022/06/08 09:25:31;;;;;;;5.92;5.00;;;;;;;26.54;50.86;100728.05;1721238;82;21804;-90
2022/06/08 09:32:00;;;;;;;4.53;4.12;;;;;;;26.85;50.03;100725.89;1721527;82;21054;-90
2022/06/08 09:38:57;;;;;;;4.45;4.08;;;;;;;27.35;49.55;100713.34;1721712;82;21105;-90
2022/06/08 09:41:38;;;;;;;6.80;4.00;;;;;;;27.52;48.64;100716.62;1757680;81;21748;-89
2022/06/08 09:44:28;;;;;;;7.92;4.08;;;;;;;27.48;48.33;100718.59;1757454;80;21884;-91
2022/06/08 09:54:56;;;;;;;7.00;3.27;;;;;;;27.79;47.61;100715.80;1757522;81;21025;-90
2022/06/08 09:57:54;;;;;;;3.27;2.90;;;;;;;27.92;47.07;100712.06;1757624;81;21758;-91
2022/06/08 10:00:51;;;;;;;8.08;4.15;;;;;;;28.05;46.86;100704.24;1756942;81;21044;-91
2022/06/08 10:03:55;;;;;;;6.80;3.75;;;;;;;28.29;46.53;100712.98;1751803;81;21104;-91
2022/06/08 10:06:36;;;;;;;4.05;3.60;;;;;;;28.37;46.20;100691.81;1736985;81;21105;-91
2022/06/08 10:09:17;;;;;;;3.72;3.40;;;;;;;28.56;45.95;100694.50;1728724;81;21139;-90
2022/06/08 10:12:31;;;;;;;10.13;4.00;;;;;;;28.62;45.87;100694.66;1757163;81;22639;-91
2022/06/08 10:15:31;;;;;;;6.45;4.17;;;;;;;28.65;45.63;100691.32;1757017;81;21074;-91
2022/06/08 10:21:58;;;;;;;3.35;2.87;;;;;;;28.79;44.86;100691.08;1757149;81;21018;-91
2022/06/08 10:24:45;;;;;;;5.45;3.30;;;;;;;28.95;44.44;100687.97;1750512;81;21053;-91
2022/06/08 10:27:24;;;;;;;4.30;3.50;;;;;;;29.11;44.38;100683.95;1746554;81;21773;-91
2022/06/08 10:30:31;;;;;;;3.67;3.27;;;;;;;29.31;44.01;100676.63;1744214;82;21763;-90
2022/06/08 10:33:12;;;;;;;4.00;3.17;;;;;;;29.45;43.61;100680.34;1746472;81;21037;-91
2022/06/08 10:35:46;;;;;;;4.62;3.10;;;;;;;29.58;43.10;100679.64;1746487;81;21043;-91
2022/06/08 10:38:37;;;;;;;3.92;3.20;;;;;;;29.56;42.88;100681.11;1751446;80;21010;-90
2022/06/08 10:44:44;;;;;;;7.37;3.80;;;;;;;29.64;42.56;100678.84;1734739;82;20998;-91
2022/06/08 10:47:21;;;;;;;4.27;3.80;;;;;;;29.80;42.35;100679.36;1743642;82;21054;-90
2022/06/08 10:49:52;;;;;;;5.72;2.98;;;;;;;29.88;42.12;100676.20;1739664;81;21418;-91
2022/06/08 10:52:24;;;;;;;6.78;3.67;;;;;;;29.89;42.14;100674.77;1738871;82;21189;-92
2022/06/08 10:55:58;;;;;;;10.55;5.20;;;;;;;29.89;41.79;100674.77;1744239;82;21718;-92
2022/06/08 10:58:44;;;;;;;4.97;3.50;;;;;;;29.88;41.50;100681.14;1746235;81;21451;-92
2022/06/08 11:05:35;;;;;;;6.30;3.27;;;;;;;29.77;41.53;100682.23;1745873;82;21073;-90
2022/06/08 11:08:13;;;;;;;6.03;3.65;;;;;;;29.90;41.33;100674.27;1743521;81;21054;-90
2022/06/08 11:11:27;;;;;;;8.93;3.92;;;;;;;30.02;41.17;100669.02;1741467;81;21667;-91
2022/06/08 11:18:01;;;;;;;5.33;4.05;;;;;;;29.56;40.79;100664.84;1742292;81;21090;-91
2022/06/08 11:20:35;;;;;;;3.85;3.45;;;;;;;29.43;41.00;100672.77;1701097;82;21401;-91
2022/06/08 11:23:24;;;;;;;4.12;3.37;;;;;;;29.36;40.84;100662.35;1721292;81;21618;-91
2022/06/08 11:26:23;;;;;;;4.15;3.45;;;;;;;29.36;40.75;100667.28;1741235;82;21797;-91
2022/06/08 11:29:00;;;;;;;5.53;3.15;;;;;;;29.31;40.70;100665.30;1741325;82;21050;-91
2022/06/08 11:31:32;;;;;;;4.83;3.30;;;;;;;29.20;40.45;100660.45;1737830;81;21077;-91
2022/06/08 11:34:23;;;;;;;3.92;3.12;;;;;;;29.27;40.48;100657.81;1709127;83;21070;-91
2022/06/08 11:37:17;;;;;;;4.42;2.87;;;;;;;29.33;40.42;100661.16;1708181;83;21622;-91
2022/06/08 11:40:12;;;;;;;3.87;3.15;;;;;;;29.43;40.27;100656.50;1706497;83;21742;-91
2022/06/08 11:42:53;;;;;;;3.30;3.00;;;;;;;29.56;40.20;100644.95;1731306;82;21025;-91
2022/06/08 11:45:47;;;;;;;6.45;3.60;;;;;;;29.70;40.07;100656.41;1716286;83;21116;-91
2022/06/08 11:48:30;;;;;;;3.85;2.58;;;;;;;29.94;39.90;100660.92;1718692;83;21030;-92
2022/06/08 11:54:43;;;;;;;4.08;2.80;;;;;;;29.89;39.34;100654.41;1742770;80;21963;-90
2022/06/08 11:57:18;;;;;;;3.60;3.20;;;;;;;29.78;39.26;100646.87;1757096;80;21107;-91
2022/06/08 11:59:46;;;;;;;3.58;3.15;;;;;;;29.85;39.30;100659.14;1745331;80;21057;-90
2022/06/08 12:02:37;;;;;;;5.90;5.35;;;;;;;29.78;39.11;100658.22;1745430;81;21101;-91
2022/06/08 12:06:08;;;;;;;6.15;3.42;;;;;;;29.66;38.95;100655.70;1736998;82;21049;-92
2022/06/08 12:08:42;;;;;;;4.28;3.30;;;;;;;29.57;39.08;100646.23;1744960;81;22627;-91
2022/06/08 12:11:14;;;;;;;7.95;2.92;;;;;;;29.73;38.99;100649.42;1745388;82;21057;-91
2022/06/08 12:14:26;;;;;;;4.53;3.08;;;;;;;29.77;38.99;100646.96;1739842;80;21045;-91
2022/06/08 12:17:16;;;;;;;3.75;3.10;;;;;;;29.67;38.74;100645.22;1740729;81;21041;-90
2022/06/08 12:19:57;;;;;;;4.00;3.40;;;;;;;29.57;38.86;100649.44;1750164;80;20974;-92
2022/06/08 12:22:27;;;;;;;3.95;3.08;;;;;;;29.43;38.99;100648.83;1724202;82;21734;-92
2022/06/08 12:29:42;;;;;;;3.62;3.15;;;;;;;29.53;39.18;100647.37;1777084;80;21014;-91
2022/06/08 12:32:27;;;;;;;3.33;2.77;;;;;;;29.56;39.22;100642.23;1715867;83;21233;-90
2022/06/08 12:35:30;;;;;;;4.15;3.27;;;;;;;29.49;38.99;100640.37;1712862;83;21331;-93
2022/06/08 12:38:30;;;;;;;5.20;3.10;;;;;;;29.46;39.04;100643.24;1716576;83;21761;-90
2022/06/08 12:44:57;;;;;;;6.12;2.85;;;;;;;29.47;39.17;100639.58;1770648;80;21089;-89
2022/06/08 12:52:16;;;;;;;4.90;3.25;;;;;;;29.31;39.01;100634.61;1777266;80;20982;-92
2022/06/08 12:54:43;;;;;;;3.05;2.80;;;;;;;29.20;38.87;100631.99;1761195;80;21794;-90
2022/06/08 12:57:19;;;;;;;3.08;2.77;;;;;;;29.30;38.89;100629.67;1746636;80;21452;-89
2022/06/08 12:59:49;;;;;;;8.40;3.15;;;;;;;29.39;38.89;100628.27;1736662;80;21085;-89
2022/06/08 13:02:30;;;;;;;4.03;2.67;;;;;;;29.48;38.65;100629.61;1737852;80;21060;-92
2022/06/08 13:05:00;;;;;;;2.60;2.40;;;;;;;29.54;38.62;100627.89;1729114;80;21540;-89
2022/06/08 13:07:29;;;;;;;4.70;2.60;;;;;;;29.44;38.31;100617.56;1746072;80;22485;-90
2022/06/08 13:09:56;;;;;;;8.70;3.35;;;;;;;29.36;38.25;100615.77;1734358;80;21581;-89
2022/06/08 13:12:26;;;;;;;5.45;3.02;;;;;;;29.31;38.37;100610.21;1766399;80;21094;-89
2022/06/08 13:14:52;;;;;;;4.15;2.83;;;;;;;29.27;38.44;100614.44;1769267;80;21092;-89
2022/06/08 13:17:20;;;;;;;4.72;3.00;;;;;;;29.14;38.48;100612.01;1751498;80;21849;-89
2022/06/08 13:19:47;;;;;;;2.75;2.55;;;;;;;29.05;38.33;100610.63;1757642;80;21789;-90
2022/06/08 13:22:47;;;;;;;5.42;2.75;;;;;;;28.93;38.47;100606.38;1744338;80;21065;-94
2022/06/08 13:25:18;;;;;;;8.33;2.62;;;;;;;28.85;38.48;100610.37;1706470;83;21571;-93
2022/06/08 13:27:45;;;;;;;4.62;3.10;;;;;;;28.62;38.48;100608.87;1719170;82;21046;-93
2022/06/08 13:30:21;;;;;;;3.08;2.77;;;;;;;28.43;38.40;100603.50;1740631;81;21064;-91
2022/06/08 13:32:49;;;;;;;3.60;3.30;;;;;;;28.35;38.87;100604.39;1724362;82;22058;-90
2022/06/08 13:35:19;;;;;;;4.17;3.05;;;;;;;28.41;38.93;100602.72;1666540;83;21615;-90
2022/06/08 13:37:55;;;;;;;4.35;3.50;;;;;;;28.40;39.15;100606.84;1691710;84;21078;-92
2022/06/08 13:40:27;;;;;;;3.77;3.20;;;;;;;28.27;39.17;100598.02;1655552;82;21222;-90
2022/06/08 13:43:00;;;;;;;8.95;3.27;;;;;;;28.09;39.38;100597.60;1725981;81;21050;-93
2022/06/08 13:45:31;;;;;;;3.83;3.33;;;;;;;27.88;39.44;100592.77;1734042;82;22746;-90
2022/06/08 13:48:00;;;;;;;4.28;3.72;;;;;;;27.66;39.56;100591.10;1693535;82;21053;-93
2022/06/08 13:50:33;;;;;;;4.15;3.72;;;;;;;27.53;39.77;100585.89;1662807;86;21034;-90
2022/06/08 13:53:00;;;;;;;12.43;3.45;;;;;;;27.38;40.18;100573.13;1705316;82;21057;-92
2022/06/08 13:55:30;;;;;;;4.83;3.75;;;;;;;27.43;40.64;100581.89;1711965;82;21069;-90
2022/06/08 13:58:14;;;;;;;4.72;3.90;;;;;;;27.59;40.89;100575.26;1666957;84;21156;-92
2022/06/08 14:01:26;;;;;;;6.70;3.52;;;;;;;27.72;40.96;100582.71;1695828;84;21646;-92
2022/06/08 14:03:53;;;;;;;4.95;4.15;;;;;;;27.87;41.20;100573.41;1715359;82;21053;-89
2022/06/08 14:14:50;;;;;;;7.35;5.67;;;;;;;27.77;41.11;100574.36;1705872;81;21191;-90
2022/06/08 14:17:18;;;;;;;6.50;5.78;;;;;;;27.53;41.13;100576.43;1706496;82;21108;-93
2022/06/08 14:19:49;;;;;;;6.00;5.40;;;;;;;27.32;41.30;100569.75;1708123;82;21113;-93
2022/06/08 14:22:20;;;;;;;8.38;6.37;;;;;;;27.26;41.64;100572.76;1714213;81;21092;-93
2022/06/08 14:24:51;;;;;;;7.90;5.78;;;;;;;27.33;41.85;100569.30;1719838;81;21855;-90
2022/06/08 14:27:18;;;;;;;7.65;5.50;;;;;;;27.38;41.79;100566.36;1698149;84;21121;-92
2022/06/08 14:29:47;;;;;;;6.05;5.45;;;;;;;27.38;41.58;100563.66;1678078;84;21075;-92
2022/06/08 14:32:29;;;;;;;8.78;5.85;;;;;;;27.31;41.47;100565.31;1705510;82;21136;-92
2022/06/08 14:34:56;;;;;;;6.40;5.80;;;;;;;27.44;41.62;100563.36;1703646;84;21046;-87
2022/06/08 14:37:54;;;;;;;8.93;6.58;;;;;;;27.67;41.83;100569.02;1723733;83;21355;-93
2022/06/08 14:44:12;;;;;;;10.30;5.20;;;;;;;27.98;41.15;100564.31;1694327;83;21067;-88
2022/06/08 14:46:39;;;;;;;6.03;5.42;;;;;;;27.85;40.68;100568.56;1687569;84;21647;-88
2022/06/08 14:49:15;;;;;;;9.53;7.25;;;;;;;27.62;40.92;100573.28;1693019;83;21322;-90